Time;durP1;ratioP1;P1;durP2;ratioP2;P2;SDS_P1;SDS_P2;PMS_P1;PMS_P2;Temp;Humidity;BMP_temperature;BMP_pressure;BME280_temperature;BME280_humidity;BME280_pressure;Samples;Min_cycle;Max_cycle;Signal;HPM_P1;HPM_P2
2022/08/31 00:05:58;;;;;;;0.22;0.20;;;16.00;66.60;;;;;;5020601;28;20058;-67
2022/08/31 00:08:25;;;;;;;2.35;0.40;;;15.90;65.10;;;;;;5021306;28;20050;-67
2022/08/31 00:10:53;;;;;;;2.03;0.30;;;16.00;65.00;;;;;;5039972;28;20488;-67
2022/08/31 00:13:20;;;;;;;0.43;0.22;;;15.90;68.20;;;;;;5042160;28;20111;-67
2022/08/31 00:15:46;;;;;;;1.85;0.30;;;15.90;67.90;;;;;;5021291;28;20049;-67
2022/08/31 00:18:13;;;;;;;0.55;0.28;;;15.90;67.00;;;;;;5024326;28;20040;-67
2022/08/31 00:20:40;;;;;;;1.48;0.28;;;15.90;66.00;;;;;;5041306;28;20053;-67
2022/08/31 00:23:08;;;;;;;0.20;0.20;;;15.90;66.50;;;;;;5024282;28;20095;-67
2022/08/31 00:25:36;;;;;;;0.63;0.30;;;15.90;66.80;;;;;;5025776;28;20048;-67
2022/08/31 00:28:03;;;;;;;2.78;0.20;;;15.80;66.60;;;;;;5024042;28;20052;-67
2022/08/31 00:30:30;;;;;;;0.63;0.50;;;15.80;67.10;;;;;;5045866;28;20487;-67
2022/08/31 00:32:56;;;;;;;1.95;0.30;;;15.80;67.30;;;;;;5027112;28;20041;-66
2022/08/31 00:35:23;;;;;;;0.30;0.30;;;15.70;70.20;;;;;;5028868;28;20072;-68
2022/08/31 00:37:48;;;;;;;0.77;0.40;;;15.70;71.20;;;;;;5042438;28;20059;-67
2022/08/31 00:40:14;;;;;;;2.10;0.30;;;15.60;72.00;;;;;;5028777;28;20045;-68
2022/08/31 00:42:42;;;;;;;0.20;0.20;;;15.60;70.30;;;;;;5029222;28;20480;-67
2022/08/31 00:45:08;;;;;;;2.45;0.60;;;15.50;72.60;;;;;;5011518;28;20049;-67
2022/08/31 00:47:35;;;;;;;0.75;0.30;;;15.50;73.80;;;;;;5028189;28;20391;-68
2022/08/31 00:50:03;;;;;;;0.77;0.32;;;15.50;75.90;;;;;;5010504;28;20376;-67
2022/08/31 00:52:34;;;;;;;2.03;0.43;;;15.40;74.70;;;;;;5045536;28;20041;-67
2022/08/31 00:55:06;;;;;;;1.60;0.50;;;15.40;76.50;;;;;;5027542;28;20499;-67
2022/08/31 00:57:38;;;;;;;0.20;0.20;;;15.30;79.30;;;;;;5028213;28;20114;-67
2022/08/31 01:00:08;;;;;;;4.07;0.40;;;15.30;79.60;;;;;;5021532;28;20426;-67
2022/08/31 01:02:34;;;;;;;0.40;0.30;;;15.30;85.00;;;;;;5034960;28;20049;-67
2022/08/31 01:05:00;;;;;;;0.55;0.32;;;15.20;87.60;;;;;;5028418;28;20369;-67
2022/08/31 01:07:26;;;;;;;3.55;0.32;;;15.20;90.20;;;;;;5043521;28;20048;-67
2022/08/31 01:09:54;;;;;;;0.57;0.30;;;15.10;91.50;;;;;;5030152;28;20048;-67
2022/08/31 01:12:20;;;;;;;0.40;0.22;;;15.10;92.60;;;;;;5022307;28;20128;-67
2022/08/31 01:14:45;;;;;;;0.38;0.17;;;15.00;92.70;;;;;;5044489;28;20037;-67
2022/08/31 01:17:11;;;;;;;2.38;0.20;;;14.90;92.80;;;;;;5044522;28;20545;-67
2022/08/31 01:20:00;;;;;;;1.08;0.30;;;14.90;92.00;;;;;;5024304;28;20125;-67
2022/08/31 01:22:50;;;;;;;2.00;0.40;;;14.90;91.00;;;;;;5044620;28;20566;-67
2022/08/31 01:25:18;;;;;;;2.85;0.45;;;14.90;91.50;;;;;;5043484;28;20053;-67
2022/08/31 01:27:45;;;;;;;1.27;0.35;;;14.80;91.80;;;;;;5027486;28;20088;-67
2022/08/31 01:30:18;;;;;;;0.20;0.20;;;14.90;90.70;;;;;;5043955;28;20085;-67
2022/08/31 01:32:44;;;;;;;2.08;0.30;;;14.90;91.30;;;;;;5028167;28;20133;-66
2022/08/31 01:35:10;;;;;;;0.63;0.40;;;14.90;92.40;;;;;;5027818;28;20120;-67
2022/08/31 01:37:36;;;;;;;0.68;0.30;;;14.90;92.50;;;;;;5027679;28;20439;-67
2022/08/31 01:40:02;;;;;;;5.80;0.32;;;14.90;93.60;;;;;;5026720;28;20053;-67
2022/08/31 01:42:28;;;;;;;2.58;0.38;;;14.80;92.80;;;;;;5026575;28;20056;-67
2022/08/31 01:44:53;;;;;;;0.30;0.30;;;14.90;91.60;;;;;;5027194;28;20128;-67
2022/08/31 01:47:19;;;;;;;1.65;0.20;;;14.90;90.30;;;;;;5027602;28;20049;-67
2022/08/31 01:49:45;;;;;;;1.50;0.40;;;14.80;91.30;;;;;;5024170;28;20622;-66
2022/08/31 01:52:14;;;;;;;1.48;0.38;;;14.80;92.40;;;;;;5028763;28;20537;-67
2022/08/31 01:54:39;;;;;;;3.35;0.40;;;14.80;92.50;;;;;;5009521;28;20116;-67
2022/08/31 01:57:05;;;;;;;1.65;0.40;;;14.80;93.20;;;;;;5010632;28;20038;-67
2022/08/31 01:59:31;;;;;;;4.07;0.40;;;14.80;93.90;;;;;;5042335;28;20124;-67
2022/08/31 02:01:56;;;;;;;0.30;0.30;;;14.80;95.20;;;;;;5008840;28;20049;-67
2022/08/31 02:04:25;;;;;;;0.63;0.28;;;14.80;96.70;;;;;;5043199;28;20115;-67
2022/08/31 02:06:53;;;;;;;0.52;0.35;;;14.80;97.50;;;;;;5025329;28;20499;-67
2022/08/31 02:09:20;;;;;;;1.55;0.50;;;14.80;97.40;;;;;;5027269;28;20049;-67
2022/08/31 02:11:46;;;;;;;0.43;0.40;;;14.80;98.20;;;;;;5042282;28;20037;-67
2022/08/31 02:14:12;;;;;;;0.52;0.52;;;14.70;97.80;;;;;;5026713;28;20041;-67
2022/08/31 02:16:38;;;;;;;2.50;0.55;;;14.70;98.90;;;;;;5025949;28;20030;-67
2022/08/31 02:19:05;;;;;;;3.58;0.40;;;14.70;99.90;;;;;;5027365;28;20041;-67
2022/08/31 02:21:32;;;;;;;0.40;0.40;;;14.70;99.90;;;;;;5040076;28;20092;-67
2022/08/31 02:23:58;;;;;;;2.97;0.50;;;14.60;99.90;;;;;;5026092;28;20089;-67
2022/08/31 02:26:24;;;;;;;0.75;0.30;;;14.60;99.90;;;;;;5043396;28;20076;-67
2022/08/31 02:28:51;;;;;;;0.70;0.35;;;14.60;99.90;;;;;;5025532;28;20570;-68
2022/08/31 02:31:17;;;;;;;0.38;0.32;;;14.60;99.90;;;;;;5042259;28;20045;-68
2022/08/31 02:33:43;;;;;;;4.10;0.30;;;14.60;99.90;;;;;;5042015;28;20033;-68
2022/08/31 02:36:08;;;;;;;0.60;0.32;;;14.60;99.90;;;;;;5023134;28;20395;-67
2022/08/31 02:38:36;;;;;;;1.65;0.50;;;14.60;99.90;;;;;;5042107;28;20038;-67
2022/08/31 02:41:03;;;;;;;0.50;0.38;;;14.60;99.90;;;;;;5009258;28;20095;-67
2022/08/31 02:43:29;;;;;;;2.10;0.43;;;14.60;99.90;;;;;;5026438;28;20048;-67
2022/08/31 02:45:55;;;;;;;0.95;0.30;;;14.60;99.90;;;;;;5042148;28;20045;-67
2022/08/31 02:48:21;;;;;;;0.77;0.10;;;14.60;99.90;;;;;;5027933;28;20034;-67
2022/08/31 02:50:49;;;;;;;0.40;0.40;;;14.60;99.90;;;;;;5024142;28;20056;-68
2022/08/31 02:53:16;;;;;;;0.70;0.50;;;14.60;99.90;;;;;;5021858;28;20087;-67
2022/08/31 02:55:42;;;;;;;0.80;0.52;;;14.60;99.90;;;;;;5024819;28;20041;-67
2022/08/31 02:58:09;;;;;;;0.70;0.30;;;14.60;99.90;;;;;;5041655;28;20072;-67
2022/08/31 03:00:36;;;;;;;4.38;0.45;;;14.60;99.90;;;;;;5041890;28;20060;-68
2022/08/31 03:03:02;;;;;;;1.52;0.30;;;14.60;99.90;;;;;;5036403;28;20131;-67
2022/08/31 03:05:28;;;;;;;0.93;0.50;;;14.60;99.90;;;;;;5025940;28;20092;-67
2022/08/31 03:07:54;;;;;;;0.50;0.40;;;14.60;99.90;;;;;;5039614;28;20632;-68
2022/08/31 03:10:23;;;;;;;0.70;0.30;;;14.60;99.90;;;;;;5010020;28;20056;-67
2022/08/31 03:12:50;;;;;;;0.82;0.25;;;14.50;99.90;;;;;;5024459;28;20722;-67
2022/08/31 03:15:18;;;;;;;1.48;0.30;;;14.50;99.90;;;;;;5042306;28;20117;-67
2022/08/31 03:17:44;;;;;;;1.70;0.40;;;14.50;99.90;;;;;;5041489;28;20047;-67
2022/08/31 03:20:11;;;;;;;0.52;0.40;;;14.50;99.90;;;;;;5035332;28;20583;-67
2022/08/31 03:22:37;;;;;;;1.50;0.22;;;14.50;99.90;;;;;;5042371;28;20522;-67
2022/08/31 03:25:04;;;;;;;1.00;0.38;;;14.50;99.90;;;;;;5041166;28;20107;-68
2022/08/31 03:27:31;;;;;;;1.75;0.68;;;14.50;99.90;;;;;;5042522;28;20052;-67
2022/08/31 03:29:57;;;;;;;0.43;0.38;;;14.40;99.90;;;;;;5013857;28;20049;-68
2022/08/31 03:32:26;;;;;;;2.00;0.30;;;14.40;99.90;;;;;;5025929;28;20060;-67
2022/08/31 03:34:56;;;;;;;0.40;0.40;;;14.40;99.90;;;;;;5007989;28;20049;-67
2022/08/31 03:37:22;;;;;;;2.83;0.43;;;14.40;99.90;;;;;;5022233;28;20387;-67
2022/08/31 03:39:49;;;;;;;1.02;0.30;;;14.40;99.90;;;;;;5022935;28;20095;-67
2022/08/31 03:42:14;;;;;;;0.70;0.50;;;14.30;99.90;;;;;;5040732;28;20050;-67
2022/08/31 03:44:40;;;;;;;2.40;0.38;;;14.30;99.90;;;;;;5025884;28;20111;-68
2022/08/31 03:47:06;;;;;;;1.58;0.50;;;14.30;99.90;;;;;;5023799;28;20053;-67
2022/08/31 03:49:32;;;;;;;1.30;0.47;;;14.30;99.90;;;;;;5037003;28;20387;-67
2022/08/31 03:51:58;;;;;;;1.13;0.30;;;14.30;99.90;;;;;;5023422;28;20049;-68
2022/08/31 03:54:24;;;;;;;0.55;0.30;;;14.30;99.90;;;;;;5042172;28;20041;-67
2022/08/31 03:56:50;;;;;;;1.95;0.30;;;14.30;99.90;;;;;;5041372;28;20152;-67
2022/08/31 03:59:15;;;;;;;0.32;0.32;;;14.30;99.90;;;;;;5031836;28;20465;-67
2022/08/31 04:01:41;;;;;;;1.00;0.30;;;14.30;99.90;;;;;;5028769;28;20053;-67
2022/08/31 04:04:08;;;;;;;1.85;0.40;;;14.20;99.90;;;;;;5046461;28;20041;-67
2022/08/31 04:06:34;;;;;;;1.35;0.17;;;14.20;99.90;;;;;;5050823;28;20160;-67
2022/08/31 04:08:59;;;;;;;0.20;0.20;;;14.20;99.90;;;;;;5013976;28;20057;-67
2022/08/31 04:11:26;;;;;;;0.57;0.45;;;14.20;99.90;;;;;;5050750;28;20041;-67
2022/08/31 04:13:52;;;;;;;3.10;0.60;;;14.20;99.90;;;;;;5032071;28;20419;-67
2022/08/31 04:16:21;;;;;;;0.25;0.25;;;14.20;99.90;;;;;;5048899;28;20957;-67
2022/08/31 04:18:47;;;;;;;0.32;0.32;;;14.20;99.90;;;;;;5047705;28;20053;-68
2022/08/31 04:21:23;;;;;;;0.75;0.30;;;14.20;99.90;;;;;;5029228;28;20037;-68
2022/08/31 04:23:49;;;;;;;3.30;0.40;;;14.20;99.90;;;;;;5016471;28;20110;-67
2022/08/31 04:26:15;;;;;;;1.63;0.47;;;14.20;99.90;;;;;;5047227;28;20056;-67
2022/08/31 04:28:41;;;;;;;3.75;0.30;;;14.10;99.90;;;;;;5032592;28;20125;-67
2022/08/31 04:31:09;;;;;;;0.30;0.30;;;14.10;99.90;;;;;;5029238;28;20053;-67
2022/08/31 04:33:39;;;;;;;1.25;0.32;;;14.10;99.90;;;;;;5027077;28;20041;-67
2022/08/31 04:36:11;;;;;;;2.95;0.50;;;14.10;99.90;;;;;;5049876;28;20083;-67
2022/08/31 04:38:37;;;;;;;1.10;0.32;;;14.10;99.90;;;;;;5047389;28;20041;-68
2022/08/31 04:41:11;;;;;;;0.77;0.40;;;14.10;99.90;;;;;;5015309;28;20132;-68
2022/08/31 04:43:47;;;;;;;2.83;0.60;;;14.10;99.90;;;;;;5047611;28;20158;-67
2022/08/31 04:46:13;;;;;;;1.65;0.40;;;14.10;99.90;;;;;;5048345;28;20063;-66
2022/08/31 04:48:40;;;;;;;1.13;0.45;;;14.10;99.90;;;;;;5017556;28;20045;-67
2022/08/31 04:51:10;;;;;;;1.13;0.52;;;14.20;99.90;;;;;;5047755;28;20110;-67
2022/08/31 04:53:36;;;;;;;0.57;0.30;;;14.20;99.90;;;;;;5031904;28;20044;-67
2022/08/31 04:56:06;;;;;;;1.00;0.40;;;14.20;99.90;;;;;;5047271;28;20057;-67
2022/08/31 04:58:32;;;;;;;3.65;0.60;;;14.20;99.90;;;;;;5022308;28;20044;-67
2022/08/31 05:00:58;;;;;;;1.05;0.47;;;14.20;99.90;;;;;;5030531;28;20052;-68
2022/08/31 05:03:24;;;;;;;0.85;0.35;;;14.20;99.90;;;;;;5014873;28;20056;-67
2022/08/31 05:05:51;;;;;;;0.43;0.30;;;14.20;99.90;;;;;;5030750;28;20029;-67
2022/08/31 05:08:18;;;;;;;1.50;0.50;;;14.30;99.90;;;;;;5031274;28;20044;-67
2022/08/31 05:10:43;;;;;;;0.70;0.40;;;14.30;99.90;;;;;;5035085;28;20038;-67
2022/08/31 05:13:10;;;;;;;0.88;0.40;;;14.30;99.90;;;;;;5047772;28;20094;-66
2022/08/31 05:15:41;;;;;;;0.65;0.40;;;14.30;99.90;;;;;;5047934;28;20045;-67
2022/08/31 05:18:07;;;;;;;1.42;0.50;;;14.20;99.90;;;;;;5029559;28;20044;-67
2022/08/31 05:20:32;;;;;;;4.93;0.70;;;14.20;99.90;;;;;;5048405;28;20044;-67
2022/08/31 05:22:58;;;;;;;1.27;0.52;;;14.20;99.90;;;;;;5033945;28;20132;-67
2022/08/31 05:25:24;;;;;;;1.05;0.52;;;14.20;99.90;;;;;;5014432;28;20414;-66
2022/08/31 05:27:49;;;;;;;0.77;0.45;;;14.30;99.90;;;;;;5048441;28;20091;-67
2022/08/31 05:30:15;;;;;;;0.75;0.50;;;14.20;99.90;;;;;;5029858;28;20037;-67
2022/08/31 05:32:41;;;;;;;0.50;0.50;;;14.20;99.90;;;;;;4991523;28;20076;-67
2022/08/31 05:35:07;;;;;;;0.88;0.50;;;14.20;99.90;;;;;;5043658;28;20076;-67
2022/08/31 05:37:32;;;;;;;0.77;0.50;;;14.20;99.90;;;;;;5013839;28;20163;-67
2022/08/31 05:39:58;;;;;;;1.00;0.50;;;14.30;99.90;;;;;;5029693;28;20168;-67
2022/08/31 05:42:24;;;;;;;1.35;0.50;;;14.20;99.90;;;;;;5030607;28;20041;-67
2022/08/31 05:44:50;;;;;;;1.40;0.40;;;14.20;99.90;;;;;;5046925;28;20057;-66
2022/08/31 05:47:15;;;;;;;2.25;0.63;;;14.30;99.90;;;;;;5048178;28;20403;-66
2022/08/31 05:49:42;;;;;;;0.98;0.40;;;14.40;99.90;;;;;;5041220;28;20041;-67
2022/08/31 05:52:08;;;;;;;2.42;0.60;;;14.40;99.90;;;;;;5045469;28;20450;-67
2022/08/31 05:54:35;;;;;;;0.55;0.45;;;14.40;99.90;;;;;;5028969;28;20170;-67
2022/08/31 05:57:02;;;;;;;1.15;0.63;;;14.50;99.90;;;;;;5028652;28;20059;-66
2022/08/31 05:59:29;;;;;;;1.27;0.63;;;14.50;99.90;;;;;;5046472;28;20760;-67
2022/08/31 06:01:55;;;;;;;2.35;0.60;;;14.50;99.90;;;;;;5025975;28;20073;-67
2022/08/31 06:04:21;;;;;;;0.57;0.50;;;14.50;99.90;;;;;;5013600;28;20087;-68
2022/08/31 06:06:47;;;;;;;2.70;0.90;;;14.50;99.90;;;;;;5029902;28;20236;-67
2022/08/31 06:09:12;;;;;;;0.77;0.50;;;14.60;99.90;;;;;;5009489;28;20041;-67
2022/08/31 06:11:40;;;;;;;3.17;0.60;;;14.60;99.90;;;;;;5028881;28;20045;-67
2022/08/31 06:14:08;;;;;;;2.53;0.55;;;14.70;99.90;;;;;;5040889;28;20107;-67
2022/08/31 06:16:35;;;;;;;0.55;0.55;;;14.70;99.90;;;;;;5044016;28;20079;-68
2022/08/31 06:19:04;;;;;;;0.65;0.63;;;14.80;99.90;;;;;;5025942;28;20048;-67
2022/08/31 06:21:33;;;;;;;0.60;0.60;;;14.80;99.90;;;;;;5036216;28;20418;-67
2022/08/31 06:24:02;;;;;;;1.95;0.70;;;14.80;99.90;;;;;;5025247;28;20044;-67
2022/08/31 06:26:31;;;;;;;0.65;0.65;;;14.90;99.90;;;;;;5009644;28;20040;-66
2022/08/31 06:29:00;;;;;;;0.98;0.65;;;15.00;99.90;;;;;;5041755;28;20510;-67
2022/08/31 06:31:34;;;;;;;0.40;0.40;;;15.00;99.90;;;;;;5021820;28;20045;-67
2022/08/31 06:34:01;;;;;;;3.60;0.60;;;15.10;99.90;;;;;;5026571;28;20547;-67
2022/08/31 06:36:30;;;;;;;3.10;0.75;;;15.10;99.90;;;;;;5023222;28;20090;-67
2022/08/31 06:39:00;;;;;;;2.40;0.70;;;15.20;99.90;;;;;;5042198;28;20051;-66
2022/08/31 06:41:34;;;;;;;1.67;0.50;;;15.20;99.90;;;;;;5023765;28;20050;-67
2022/08/31 06:44:03;;;;;;;3.85;0.70;;;15.30;99.90;;;;;;5043268;28;20571;-66
2022/08/31 06:46:31;;;;;;;0.40;0.40;;;15.40;99.90;;;;;;5045719;28;20123;-66
2022/08/31 06:48:58;;;;;;;4.88;0.80;;;15.40;99.90;;;;;;5044503;28;20059;-66
2022/08/31 06:51:24;;;;;;;3.25;0.80;;;15.60;99.90;;;;;;5009643;28;20091;-66
2022/08/31 06:53:51;;;;;;;3.20;0.75;;;15.70;99.90;;;;;;5011771;28;20059;-67
2022/08/31 06:56:20;;;;;;;3.58;0.80;;;15.80;99.90;;;;;;5046828;28;20051;-66
2022/08/31 06:58:46;;;;;;;6.00;0.50;;;15.90;99.90;;;;;;5045472;28;20052;-66
2022/08/31 07:01:16;;;;;;;1.85;0.57;;;16.00;99.90;;;;;;5036703;28;20049;-66
2022/08/31 07:03:43;;;;;;;1.17;0.50;;;16.20;99.90;;;;;;5013129;28;20095;-66
2022/08/31 07:06:14;;;;;;;1.63;0.60;;;16.40;99.90;;;;;;5005671;28;20037;-67
2022/08/31 07:08:40;;;;;;;2.10;0.70;;;16.60;98.20;;;;;;5028881;28;20495;-66
2022/08/31 07:11:19;;;;;;;0.43;0.30;;;17.00;98.60;;;;;;5023073;28;20465;-66
2022/08/31 07:13:47;;;;;;;3.80;0.60;;;17.30;96.90;;;;;;5024293;28;20049;-66
2022/08/31 07:16:16;;;;;;;0.35;0.35;;;17.50;84.00;;;;;;5046657;28;20491;-66
2022/08/31 07:18:42;;;;;;;1.50;0.40;;;17.70;89.00;;;;;;5027237;28;20040;-66
2022/08/31 07:21:17;;;;;;;2.28;0.43;;;17.90;79.70;;;;;;5045523;28;20114;-66
2022/08/31 07:23:44;;;;;;;3.13;0.60;;;18.10;75.60;;;;;;5043803;28;20084;-66
2022/08/31 07:26:21;;;;;;;1.08;0.40;;;18.30;77.80;;;;;;5046176;28;20427;-66
2022/08/31 07:28:51;;;;;;;0.75;0.45;;;18.50;66.90;;;;;;5028677;28;20124;-66
2022/08/31 07:31:23;;;;;;;2.35;0.45;;;18.60;70.10;;;;;;5026680;28;20045;-66
2022/08/31 07:33:51;;;;;;;1.25;0.60;;;18.70;63.00;;;;;;5046862;28;20454;-66
2022/08/31 07:36:17;;;;;;;2.30;0.55;;;18.80;68.00;;;;;;5023128;28;20048;-67
2022/08/31 07:44:21;;;;;;;1.38;0.55;;;19.00;63.30;;;;;;4994980;28;20614;-67
2022/08/31 07:46:48;;;;;;;1.50;0.75;;;19.00;62.70;;;;;;5024890;28;20041;-66
2022/08/31 07:49:15;;;;;;;0.63;0.50;;;19.10;66.40;;;;;;5019996;28;20446;-66
2022/08/31 07:51:49;;;;;;;0.32;0.30;;;19.20;65.60;;;;;;5028488;28;20052;-66
2022/08/31 07:54:19;;;;;;;4.22;1.38;;;19.20;65.80;;;;;;5045424;28;20402;-66
2022/08/31 07:56:49;;;;;;;1.50;0.82;;;19.30;62.60;;;;;;5028952;28;20456;-66
2022/08/31 07:59:16;;;;;;;0.98;0.73;;;19.50;62.00;;;;;;5045043;28;20212;-67
2022/08/31 08:01:42;;;;;;;2.17;0.57;;;19.50;60.80;;;;;;5026705;28;20041;-66
2022/08/31 08:04:17;;;;;;;0.63;0.40;;;19.60;65.30;;;;;;5028949;28;20041;-67
2022/08/31 08:06:43;;;;;;;2.08;0.73;;;19.70;63.90;;;;;;5003639;28;20097;-67
2022/08/31 08:09:10;;;;;;;1.55;0.38;;;20.00;66.80;;;;;;5024125;28;20059;-66
2022/08/31 08:11:40;;;;;;;4.03;0.50;;;20.20;61.40;;;;;;5026359;28;20045;-66
2022/08/31 08:14:07;;;;;;;1.02;0.60;;;20.10;50.80;;;;;;5040879;28;20044;-66
2022/08/31 08:16:32;;;;;;;1.10;0.70;;;20.00;51.10;;;;;;5027312;28;20041;-66
2022/08/31 08:18:59;;;;;;;2.10;0.50;;;20.00;57.50;;;;;;5025507;28;20064;-66
2022/08/31 08:21:26;;;;;;;2.45;0.55;;;20.00;55.20;;;;;;5042141;28;20487;-67
2022/08/31 08:23:51;;;;;;;4.35;0.55;;;20.00;51.70;;;;;;5021336;28;20103;-66
2022/08/31 08:26:17;;;;;;;0.98;0.40;;;20.00;53.80;;;;;;5045624;28;20037;-66
2022/08/31 08:28:43;;;;;;;0.55;0.43;;;20.10;50.00;;;;;;5041111;28;20063;-67
2022/08/31 08:31:14;;;;;;;1.75;0.60;;;20.20;56.70;;;;;;5041223;28;20049;-66
2022/08/31 08:33:40;;;;;;;2.08;0.50;;;20.30;55.70;;;;;;5042098;28;20110;-66
2022/08/31 08:36:07;;;;;;;1.25;0.50;;;20.40;57.20;;;;;;5041280;28;20037;-67
2022/08/31 08:38:34;;;;;;;0.40;0.40;;;20.60;55.80;;;;;;5040754;28;20052;-67
2022/08/31 08:41:03;;;;;;;1.40;0.45;;;20.60;44.90;;;;;;5041329;28;20049;-67
2022/08/31 08:43:35;;;;;;;1.25;0.30;;;20.60;43.70;;;;;;5019564;28;20041;-67
2022/08/31 08:46:03;;;;;;;1.35;0.38;;;20.60;54.70;;;;;;5016741;28;20048;-67
2022/08/31 08:48:33;;;;;;;1.67;0.50;;;20.70;46.30;;;;;;5044812;28;20116;-67
2022/08/31 08:51:02;;;;;;;2.30;0.70;;;20.80;44.10;;;;;;5013383;28;20372;-67
2022/08/31 08:53:30;;;;;;;1.50;0.63;;;20.90;42.30;;;;;;5038559;28;20116;-67
2022/08/31 08:55:57;;;;;;;2.05;0.40;;;21.00;38.40;;;;;;5006996;28;20044;-67
2022/08/31 08:58:24;;;;;;;1.17;0.50;;;21.00;34.20;;;;;;5026196;28;20427;-67
2022/08/31 09:00:52;;;;;;;2.45;0.30;;;21.00;34.80;;;;;;5016374;28;20052;-67
2022/08/31 09:03:19;;;;;;;0.30;0.30;;;21.20;46.50;;;;;;5029402;28;20124;-67
2022/08/31 09:06:24;;;;;;;2.75;0.52;;;21.40;38.10;;;;;;5048574;28;20517;-67
2022/08/31 09:09:17;;;;;;;1.48;0.30;;;21.50;36.80;;;;;;5029233;28;20064;-67
2022/08/31 09:12:09;;;;;;;1.30;0.43;;;21.50;36.50;;;;;;5029436;28;20430;-67
2022/08/31 09:14:57;;;;;;;1.02;0.30;;;21.40;33.10;;;;;;5012710;28;20044;-67
2022/08/31 09:17:41;;;;;;;2.83;0.43;;;21.40;36.60;;;;;;5027471;28;20582;-68
2022/08/31 09:20:11;;;;;;;6.57;0.60;;;21.50;29.80;;;;;;5020148;28;20059;-67
2022/08/31 09:22:49;;;;;;;0.40;0.40;;;21.60;35.90;;;;;;5036286;28;20064;-67
2022/08/31 09:25:32;;;;;;;3.72;0.60;;;21.70;34.10;;;;;;5047807;28;20388;-67
2022/08/31 09:28:06;;;;;;;1.95;0.50;;;21.60;32.80;;;;;;5044734;28;20037;-67
2022/08/31 09:30:44;;;;;;;1.92;0.40;;;21.50;37.70;;;;;;5041030;28;20101;-67
2022/08/31 09:33:22;;;;;;;2.88;0.65;;;21.60;30.90;;;;;;5029009;28;20063;-68
2022/08/31 09:35:55;;;;;;;2.25;0.82;;;21.70;34.50;;;;;;5048689;28;20044;-67
2022/08/31 09:38:27;;;;;;;1.38;0.30;;;21.70;35.00;;;;;;5025001;28;20479;-68
2022/08/31 09:40:53;;;;;;;2.08;0.80;;;21.40;31.10;;;;;;5042513;28;20528;-68
2022/08/31 09:43:23;;;;;;;0.40;0.40;;;21.30;35.30;;;;;;5009938;28;20045;-68
2022/08/31 09:46:24;;;;;;;3.70;0.50;;;21.40;37.20;;;;;;5043010;28;20455;-68
2022/08/31 09:48:57;;;;;;;3.28;0.38;;;21.20;31.60;;;;;;5028979;28;20092;-67
2022/08/31 09:51:37;;;;;;;1.05;0.45;;;21.50;37.30;;;;;;5019393;28;20102;-67
2022/08/31 09:57:01;;;;;;;2.38;0.63;;;21.80;29.70;;;;;;5047935;28;20040;-68
2022/08/31 09:59:38;;;;;;;0.45;0.45;;;21.80;23.70;;;;;;5026942;28;20057;-68
2022/08/31 10:02:32;;;;;;;3.05;0.40;;;21.80;24.00;;;;;;5017689;28;20465;-68
2022/08/31 10:05:05;;;;;;;0.47;0.38;;;21.80;22.70;;;;;;5027851;28;20049;-67
2022/08/31 10:07:56;;;;;;;0.88;0.50;;;21.80;21.50;;;;;;5011434;28;20135;-67
2022/08/31 10:10:34;;;;;;;3.30;0.45;;;21.60;24.40;;;;;;5025910;28;20439;-68
2022/08/31 10:13:12;;;;;;;5.10;0.30;;;21.70;23.80;;;;;;5045061;28;20182;-68
2022/08/31 10:15:52;;;;;;;2.80;0.30;;;21.80;22.10;;;;;;5023869;28;20112;-68
2022/08/31 10:18:27;;;;;;;1.08;0.28;;;21.80;20.10;;;;;;5027668;28;20547;-68
2022/08/31 10:21:12;;;;;;;1.30;0.45;;;22.00;19.40;;;;;;5011392;28;20626;-68
2022/08/31 10:23:55;;;;;;;6.00;0.50;;;22.00;22.00;;;;;;5040259;28;20033;-68
2022/08/31 10:26:36;;;;;;;1.10;0.40;;;22.10;16.30;;;;;;5013426;28;20048;-68
2022/08/31 10:29:43;;;;;;;5.22;0.50;;;22.10;17.50;;;;;;5019823;28;20044;-68
2022/08/31 10:32:22;;;;;;;0.30;0.30;;;22.20;20.00;;;;;;5016980;28;20106;-68
2022/08/31 10:35:06;;;;;;;4.70;0.40;;;22.20;16.40;;;;;;5027214;28;20131;-68
2022/08/31 10:37:53;;;;;;;0.70;0.30;;;22.20;10.20;;;;;;5022285;28;20139;-67
2022/08/31 10:40:38;;;;;;;0.10;0.10;;;22.20;12.10;;;;;;5025742;28;20045;-68
2022/08/31 10:43:21;;;;;;;1.35;0.30;;;22.30;12.30;;;;;;5025638;28;20056;-68
2022/08/31 10:45:52;;;;;;;1.13;0.20;;;22.30;13.00;;;;;;5025817;28;20052;-68
2022/08/31 10:48:21;;;;;;;0.82;0.30;;;22.30;10.70;;;;;;5028014;28;20086;-68
2022/08/31 10:50:55;;;;;;;0.73;0.38;;;22.20;11.20;;;;;;5042548;28;20037;-68
2022/08/31 10:53:37;;;;;;;0.95;0.30;;;22.30;12.90;;;;;;5028805;28;20098;-67
2022/08/31 10:56:13;;;;;;;2.08;0.43;;;22.40;11.30;;;;;;5044879;28;20060;-68
2022/08/31 10:58:51;;;;;;;1.88;0.40;;;22.30;10.90;;;;;;5023531;28;20049;-68
2022/08/31 11:01:30;;;;;;;1.13;0.40;;;22.30;11.20;;;;;;5018497;28;20570;-68
2022/08/31 11:04:34;;;;;;;0.63;0.25;;;22.20;9.80;;;;;;5026318;28;20437;-67
2022/08/31 11:07:38;;;;;;;0.90;0.40;;;22.20;11.00;;;;;;5044623;28;20132;-67
2022/08/31 11:10:25;;;;;;;2.10;0.43;;;22.20;13.90;;;;;;4964433;28;20049;-68
2022/08/31 11:13:01;;;;;;;0.32;0.20;;;22.20;8.70;;;;;;5024153;28;20406;-68
2022/08/31 11:15:43;;;;;;;3.65;0.35;;;22.30;14.50;;;;;;5043681;28;20041;-68
2022/08/31 11:18:39;;;;;;;2.67;0.30;;;22.20;9.20;;;;;;5045813;28;20498;-68
2022/08/31 11:21:24;;;;;;;3.60;0.20;;;22.10;12.10;;;;;;5043041;28;20041;-68
2022/08/31 11:24:10;;;;;;;0.82;0.35;;;22.00;11.20;;;;;;5042663;28;20045;-69
2022/08/31 11:26:45;;;;;;;0.68;0.68;;;22.00;8.60;;;;;;5025544;28;20080;-67
2022/08/31 11:29:27;;;;;;;1.90;0.30;;;22.00;8.40;;;;;;5043464;28;20514;-68
2022/08/31 11:32:01;;;;;;;0.38;0.38;;;22.00;11.10;;;;;;5045479;28;20080;-67
2022/08/31 11:34:38;;;;;;;1.83;0.40;;;22.00;8.40;;;;;;5034843;28;20194;-68
2022/08/31 11:37:07;;;;;;;3.25;0.40;;;22.00;9.60;;;;;;5021200;28;20384;-69
2022/08/31 11:39:35;;;;;;;;;;;22.00;9.10;;;;;;5045907;28;20041;-68
2022/08/31 11:42:07;;;;;;;0.68;0.50;;;22.10;9.50;;;;;;5009900;28;19921;-68
2022/08/31 11:44:36;;;;;;;2.97;0.25;;;22.20;4.90;;;;;;5020533;28;20128;-68
2022/08/31 11:47:05;;;;;;;;;;;22.10;7.90;;;;;;5026921;28;20045;-68
2022/08/31 11:49:42;;;;;;;0.30;0.30;;;22.20;12.00;;;;;;5025062;28;19931;-67
2022/08/31 11:52:13;;;;;;;2.83;0.40;;;22.20;7.50;;;;;;5028107;28;20048;-68
2022/08/31 11:54:41;;;;;;;2.67;0.30;;;22.20;8.30;;;;;;5024083;28;20049;-68
2022/08/31 11:57:14;;;;;;;0.40;0.40;;;22.30;8.40;;;;;;5028558;28;20127;-67
2022/08/31 11:59:43;;;;;;;0.60;0.30;;;22.20;6.80;;;;;;5026474;28;20056;-68
2022/08/31 12:02:17;;;;;;;;;;;22.20;10.80;;;;;;5022882;28;20487;-68
2022/08/31 12:04:52;;;;;;;0.32;0.32;;;22.30;7.60;;;;;;5043400;28;20015;-68
2022/08/31 12:07:34;;;;;;;0.75;0.40;;;22.30;7.80;;;;;;5026810;28;20120;-68
2022/08/31 12:10:06;;;;;;;0.47;0.40;;;22.30;7.60;;;;;;5026929;28;20410;-68
2022/08/31 12:13:06;;;;;;;0.98;0.40;;;22.40;10.20;;;;;;5043278;28;20506;-68
2022/08/31 12:15:41;;;;;;;1.98;0.30;;;22.40;10.70;;;;;;5027277;28;20059;-68
2022/08/31 12:18:33;;;;;;;4.03;0.40;;;22.30;8.70;;;;;;5034510;28;20076;-68
2022/08/31 12:24:11;;;;;;;1.58;0.35;;;22.30;8.10;;;;;;5027362;28;20037;-67
2022/08/31 12:26:51;;;;;;;0.77;0.20;;;22.30;7.50;;;;;;5037384;28;20494;-68
2022/08/31 12:29:35;;;;;;;0.30;0.20;;;22.30;8.00;;;;;;5014917;28;20131;-67
2022/08/31 12:32:37;;;;;;;0.30;0.30;;;22.30;8.20;;;;;;5029128;28;20525;-68
2022/08/31 12:35:16;;;;;;;0.68;0.30;;;22.40;8.20;;;;;;5020433;28;20613;-67
2022/08/31 12:37:42;;;;;;;0.32;0.20;;;22.50;6.60;;;;;;5030171;28;20091;-68
2022/08/31 12:40:18;;;;;;;1.05;0.30;;;22.50;8.60;;;;;;5028802;28;20044;-68
2022/08/31 12:42:55;;;;;;;0.55;0.22;;;22.50;5.70;;;;;;5047165;28;20051;-67
2022/08/31 12:45:48;;;;;;;0.43;0.30;;;22.50;6.30;;;;;;5032192;28;20037;-67
2022/08/31 12:48:32;;;;;;;3.33;0.50;;;22.50;6.50;;;;;;5047678;28;20128;-68
2022/08/31 12:51:30;;;;;;;3.38;0.45;;;22.40;6.60;;;;;;5042178;28;20122;-68
2022/08/31 12:54:35;;;;;;;3.22;0.43;;;22.50;6.50;;;;;;5029226;28;20048;-69
2022/08/31 12:57:23;;;;;;;1.85;0.20;;;22.50;4.90;;;;;;5043927;28;20091;-68
2022/08/31 12:59:55;;;;;;;0.43;0.30;;;22.50;5.00;;;;;;5027512;28;20084;-68
2022/08/31 13:02:22;;;;;;;0.20;0.20;;;22.40;5.60;;;;;;5028953;28;20079;-68
2022/08/31 13:04:52;;;;;;;0.28;0.20;;;22.40;4.80;;;;;;5020764;28;20043;-69
2022/08/31 13:07:27;;;;;;;0.30;0.30;;;22.40;6.40;;;;;;5032091;28;20045;-69
2022/08/31 13:10:16;;;;;;;1.70;0.38;;;22.40;5.40;;;;;;5027565;28;20041;-68
2022/08/31 13:12:51;;;;;;;1.95;0.50;;;22.40;5.10;;;;;;5026747;28;20045;-69
2022/08/31 13:15:29;;;;;;;0.28;0.20;;;22.40;9.20;;;;;;5045522;28;20041;-69
2022/08/31 13:17:55;;;;;;;4.03;0.43;;;22.50;8.90;;;;;;5042792;28;20083;-68
2022/08/31 13:20:34;;;;;;;0.30;0.30;;;22.50;3.50;;;;;;5043423;28;20045;-68
2022/08/31 13:23:01;;;;;;;;;;;22.60;4.80;;;;;;5028408;28;20510;-68
2022/08/31 13:25:35;;;;;;;0.52;0.35;;;22.60;5.30;;;;;;5027815;28;19924;-68
2022/08/31 13:28:11;;;;;;;3.97;0.28;;;22.60;1.90;;;;;;5025931;28;20391;-69